Bungo Princess — 3FXV8 — position and weather

sailwx.info

Track history (hours):
 
Tides and Currents Weather Stations Pressure Air Temp Water Temp Dewpoint Dewpoint Depression Visibility Wind Speed Wind Dir Waves Ship Positions

Bungo Princess

Last reported at 2016-Apr-30 20:33 UTC. Time now 2016-Apr-30 20:43 UTC.
Position N 34°58' E 140°18'.

Length 103 m; draft 5.5 m.

Type: Cargo ship. MMSI: 355074054.

Date/timePositionNaut miles runAvg speedWind from/ knotsBaromVisibWave heightAir tempDewpointWater temp
2016-Apr-30 20:33N 34°58' E 140°18'1613.4
2016-Apr-30 19:20N 34°49' E 140°01'  
2016-Apr-22 11:33N 31°22' E 121°36'5 4.4
2016-Apr-22 10:31N 31°21' E 121°31'6 5.7
2016-Apr-22 09:30N 31°15' E 121°32'5 5.0
2016-Apr-22 08:32N 31°11' E 121°29'5 5.4
2016-Apr-22 07:33N 31°06' E 121°28'0 0.3
2016-Apr-22 06:28N 31°06' E 121°28'0 0.0
2016-Apr-22 05:28N 31°06' E 121°28'0 0.0
2016-Apr-22 04:28N 31°06' E 121°28'0 0.0
2016-Apr-22 02:10N 31°06' E 121°28'0 0.0
2016-Apr-22 00:16N 31°06' E 121°28'0 0.0
2016-Apr-21 23:28N 31°06' E 121°28'0 0.0
2016-Apr-21 22:25N 31°06' E 121°28'0 0.0
2016-Apr-21 21:13N 31°06' E 121°28'0 0.0
2016-Apr-21 19:31N 31°06' E 121°28'0 0.0
2016-Apr-21 18:25N 31°06' E 121°28'0 0.0
2016-Apr-21 17:31N 31°06' E 121°28'0 0.0
2016-Apr-21 16:04N 31°06' E 121°28'0 0.0
2016-Apr-21 11:07N 31°06' E 121°28'0 0.0
2016-Apr-21 10:04N 31°06' E 121°28'0 0.0
2016-Apr-21 08:07N 31°06' E 121°28'0 0.0
2016-Apr-21 06:07N 31°06' E 121°28'0 0.0
2016-Apr-21 02:25N 31°06' E 121°28'0 0.0
2016-Apr-20 23:25N 31°06' E 121°28'0 0.0
2016-Apr-20 22:13N 31°06' E 121°28'  
Track history (hours):
 
Tides and Currents Weather Stations Pressure Air Temp Water Temp Dewpoint Dewpoint Depression Visibility Wind Speed Wind Dir Waves Ship Positions

Bungo Princess

Last reported at 2016-Apr-30 20:33 UTC. Time now 2016-Apr-30 20:43 UTC.
Position N 34°58' E 140°18'.

Length 103 m; draft 5.5 m.

Type: Cargo ship. MMSI: 355074054.

Date/timePositionNaut miles runAvg speedWind from/ knotsBaromVisibWave heightAir tempDewpointWater temp
2016-Apr-30 20:33N 34°58' E 140°18'1613.4
2016-Apr-30 19:20N 34°49' E 140°01'  
2016-Apr-22 11:33N 31°22' E 121°36'5 4.4
2016-Apr-22 10:31N 31°21' E 121°31'6 5.7
2016-Apr-22 09:30N 31°15' E 121°32'5 5.0
2016-Apr-22 08:32N 31°11' E 121°29'5 5.4
2016-Apr-22 07:33N 31°06' E 121°28'0 0.3
2016-Apr-22 06:28N 31°06' E 121°28'0 0.0
2016-Apr-22 05:28N 31°06' E 121°28'0 0.0
2016-Apr-22 04:28N 31°06' E 121°28'0 0.0
2016-Apr-22 02:10N 31°06' E 121°28'0 0.0
2016-Apr-22 00:16N 31°06' E 121°28'0 0.0
2016-Apr-21 23:28N 31°06' E 121°28'0 0.0
2016-Apr-21 22:25N 31°06' E 121°28'0 0.0
2016-Apr-21 21:13N 31°06' E 121°28'0 0.0
2016-Apr-21 19:31N 31°06' E 121°28'0 0.0
2016-Apr-21 18:25N 31°06' E 121°28'0 0.0
2016-Apr-21 17:31N 31°06' E 121°28'0 0.0
2016-Apr-21 16:04N 31°06' E 121°28'0 0.0
2016-Apr-21 11:07N 31°06' E 121°28'0 0.0
2016-Apr-21 10:04N 31°06' E 121°28'0 0.0
2016-Apr-21 08:07N 31°06' E 121°28'0 0.0
2016-Apr-21 06:07N 31°06' E 121°28'0 0.0
2016-Apr-21 02:25N 31°06' E 121°28'0 0.0
2016-Apr-20 23:25N 31°06' E 121°28'0 0.0
2016-Apr-20 22:13N 31°06' E 121°28'  

Dump ship's entire track history